Time;durP1;ratioP1;P1;durP2;ratioP2;P2;SDS_P1;SDS_P2;PMS_P1;PMS_P2;Temp;Humidity;BMP_temperature;BMP_pressure;BME280_temperature;BME280_humidity;BME280_pressure;Samples;Min_cycle;Max_cycle;Signal;HPM_P1;HPM_P2
2021/04/27 00:01:59;;;;;;;;;;;15.90;80.20;;;;;;4976725;28;93397;-62
2021/04/27 00:04:25;;;;;;;;;;;15.80;80.00;;;;;;4978531;28;92192;-62
2021/04/27 00:06:50;;;;;;;;;;;15.90;80.00;;;;;;4976361;28;93693;-62
2021/04/27 00:09:16;;;;;;;;;;;15.80;80.20;;;;;;4976967;28;93779;-63
2021/04/27 00:11:42;;;;;;;;;;;15.90;80.30;;;;;;4981923;28;92212;-61
2021/04/27 00:14:07;;;;;;;;;;;15.90;79.90;;;;;;4977061;28;93339;-62
2021/04/27 00:16:33;;;;;;;;;;;15.90;80.00;;;;;;4977209;28;91462;-62
2021/04/27 00:18:59;;;;;;;;;;;15.90;79.80;;;;;;4975216;28;92218;-62
2021/04/27 00:21:25;;;;;;;;;;;15.80;79.80;;;;;;4973601;28;93198;-62
2021/04/27 00:23:51;;;;;;;;;;;15.80;79.80;;;;;;4974183;28;94040;-62
2021/04/27 00:26:16;;;;;;;;;;;15.80;79.90;;;;;;4973888;28;94034;-62
2021/04/27 00:28:42;;;;;;;;;;;15.80;80.00;;;;;;4976607;28;93773;-62
2021/04/27 00:31:08;;;;;;;;;;;15.80;80.20;;;;;;4978394;28;92191;-62
2021/04/27 00:33:33;;;;;;;;;;;15.80;80.00;;;;;;4980785;28;93644;-62
2021/04/27 00:35:59;;;;;;;;;;;15.80;80.10;;;;;;4977927;28;92193;-62
2021/04/27 00:38:24;;;;;;;;;;;15.80;80.10;;;;;;4977282;28;92199;-62
2021/04/27 00:40:50;;;;;;;;;;;15.80;79.80;;;;;;4976322;28;91946;-62
2021/04/27 00:43:16;;;;;;;;;;;15.80;80.00;;;;;;4975569;28;92210;-62
2021/04/27 00:45:41;;;;;;;;;;;15.80;79.80;;;;;;4974808;28;92497;-62
2021/04/27 00:48:07;;;;;;;;;;;15.80;80.10;;;;;;4971973;28;95452;-61
2021/04/27 00:50:35;;;;;;;;;;;15.80;79.90;;;;;;4973085;28;92160;-62
2021/04/27 00:53:02;;;;;;;;;;;15.70;80.20;;;;;;4977724;28;92704;-62
2021/04/27 00:55:28;;;;;;;;;;;15.70;80.20;;;;;;4973285;28;93035;-62
2021/04/27 00:57:53;;;;;;;;;;;15.70;79.90;;;;;;4973431;28;92213;-62
2021/04/27 01:00:24;;;;;;;;;;;15.70;80.00;;;;;;4975433;28;94652;-62
2021/04/27 01:02:49;;;;;;;;;;;15.70;80.00;;;;;;4977511;28;93475;-61
2021/04/27 01:05:17;;;;;;;;;;;15.70;79.90;;;;;;4975442;28;92547;-62
2021/04/27 01:07:47;;;;;;;;;;;15.70;79.80;;;;;;4976016;28;93303;-62
2021/04/27 01:10:13;;;;;;;;;;;15.70;80.10;;;;;;4976138;28;92213;-62
2021/04/27 01:12:41;;;;;;;;;;;15.70;79.60;;;;;;4974971;28;93124;-62
2021/04/27 01:15:10;;;;;;;;;;;15.70;79.80;;;;;;4979172;28;94825;-62
2021/04/27 01:17:36;;;;;;;;;;;15.70;80.00;;;;;;4973933;28;93020;-62
2021/04/27 01:20:05;;;;;;;;;;;15.70;80.20;;;;;;4973258;28;94383;-62
2021/04/27 01:22:49;;;;;;;;;;;15.70;80.10;;;;;;4976370;28;92291;-62
2021/04/27 01:25:18;;;;;;;;;;;15.70;79.90;;;;;;4973882;28;93792;-62
2021/04/27 01:27:44;;;;;;;;;;;15.60;80.00;;;;;;4972548;28;93205;-62
2021/04/27 01:30:10;;;;;;;;;;;15.60;79.60;;;;;;4973875;28;92817;-62
2021/04/27 01:32:37;;;;;;;;;;;15.60;80.00;;;;;;4977336;28;93089;-62
2021/04/27 01:35:03;;;;;;;;;;;15.60;79.90;;;;;;4975558;28;94483;-62
2021/04/27 01:37:29;;;;;;;;;;;15.60;80.00;;;;;;4977112;28;93270;-62
2021/04/27 01:39:55;;;;;;;;;;;15.60;79.70;;;;;;4972958;28;92769;-62
2021/04/27 01:42:20;;;;;;;;;;;15.60;80.00;;;;;;4972632;28;92201;-61
2021/04/27 01:44:46;;;;;;;;;;;15.50;79.80;;;;;;4974222;28;92344;-62
2021/04/27 01:47:12;;;;;;;;;;;15.60;79.80;;;;;;4976496;28;93245;-62
2021/04/27 01:49:40;;;;;;;;;;;15.60;79.60;;;;;;4975631;28;92201;-61
2021/04/27 01:52:06;;;;;;;;;;;15.60;80.30;;;;;;4972675;28;94944;-62
2021/04/27 01:54:32;;;;;;;;;;;15.60;79.60;;;;;;4972481;28;91956;-62
2021/04/27 01:56:58;;;;;;;;;;;15.50;79.40;;;;;;4972865;28;92232;-62
2021/04/27 01:59:24;;;;;;;;;;;15.50;79.30;;;;;;4975776;28;93903;-62
2021/04/27 02:01:49;;;;;;;;;;;15.50;79.50;;;;;;4979129;28;94841;-62
2021/04/27 02:04:26;;;;;;;;;;;15.50;79.50;;;;;;4980064;28;93527;-62
2021/04/27 02:06:52;;;;;;;;;;;15.50;79.60;;;;;;4977679;28;93189;-62
2021/04/27 02:09:20;;;;;;;;;;;15.50;79.70;;;;;;4977279;28;92191;-62
2021/04/27 02:11:48;;;;;;;;;;;15.50;79.70;;;;;;4980591;28;93274;-62
2021/04/27 02:14:13;;;;;;;;;;;15.50;79.60;;;;;;4976336;28;93193;-62
2021/04/27 02:16:48;;;;;;;;;;;15.50;79.80;;;;;;4976695;28;92192;-62
2021/04/27 02:19:14;;;;;;;;;;;15.50;79.60;;;;;;4978116;28;92482;-62
2021/04/27 02:21:40;;;;;;;;;;;15.40;79.50;;;;;;4978259;28;92198;-62
2021/04/27 02:24:07;;;;;;;;;;;15.50;79.80;;;;;;4977350;28;93975;-62
2021/04/27 02:26:32;;;;;;;;;;;15.40;79.60;;;;;;4978091;28;93726;-62
2021/04/27 02:29:00;;;;;;;;;;;15.40;79.80;;;;;;4978240;28;92195;-62
2021/04/27 02:31:25;;;;;;;;;;;15.40;79.60;;;;;;4975510;28;92198;-62
2021/04/27 02:33:51;;;;;;;;;;;15.40;79.90;;;;;;4976754;28;93252;-62
2021/04/27 02:36:16;;;;;;;;;;;15.40;79.50;;;;;;4979929;28;93797;-63
2021/04/27 02:38:42;;;;;;;;;;;15.40;79.70;;;;;;4980069;28;92685;-63
2021/04/27 02:41:08;;;;;;;;;;;15.40;79.60;;;;;;4979049;28;94779;-62
2021/04/27 02:43:37;;;;;;;;;;;15.40;79.60;;;;;;4983654;28;91520;-62
2021/04/27 02:46:02;;;;;;;;;;;15.30;79.60;;;;;;4976165;28;92732;-62
2021/04/27 02:48:28;;;;;;;;;;;15.40;80.00;;;;;;4975810;28;92231;-62
2021/04/27 02:50:54;;;;;;;;;;;15.40;80.10;;;;;;4975183;28;93765;-62
2021/04/27 02:53:20;;;;;;;;;;;15.30;79.80;;;;;;4976451;28;93693;-62
2021/04/27 02:55:46;;;;;;;;;;;15.30;80.00;;;;;;4975952;28;93385;-62
2021/04/27 02:58:12;;;;;;;;;;;15.30;80.10;;;;;;4979549;28;92551;-62
2021/04/27 03:00:38;;;;;;;;;;;15.30;80.00;;;;;;4977827;28;94332;-62
2021/04/27 03:03:04;;;;;;;;;;;15.30;80.20;;;;;;4980044;28;92247;-62
2021/04/27 03:05:29;;;;;;;;;;;15.30;80.10;;;;;;4975741;28;92393;-62
2021/04/27 03:07:55;;;;;;;;;;;15.30;80.30;;;;;;4975981;28;91476;-62
2021/04/27 03:10:20;;;;;;;;;;;15.30;80.10;;;;;;4974534;28;92979;-62
2021/04/27 03:12:46;;;;;;;;;;;15.30;80.00;;;;;;4975284;28;93752;-62
2021/04/27 03:15:12;;;;;;;;;;;15.30;80.00;;;;;;4974240;28;94134;-62
2021/04/27 03:17:38;;;;;;;;;;;15.30;80.30;;;;;;4975868;28;96354;-62
2021/04/27 03:20:05;;;;;;;;;;;15.30;80.10;;;;;;4978476;28;93712;-62
2021/04/27 03:22:30;;;;;;;;;;;15.20;80.20;;;;;;4976992;28;92187;-62
2021/04/27 03:24:56;;;;;;;;;;;15.20;80.10;;;;;;4978626;28;93505;-62
2021/04/27 03:27:21;;;;;;;;;;;15.20;80.30;;;;;;4975701;28;92172;-62
2021/04/27 03:29:47;;;;;;;;;;;15.20;80.30;;;;;;4975129;28;92332;-62
2021/04/27 03:32:13;;;;;;;;;;;15.20;80.20;;;;;;4975100;28;93387;-62
2021/04/27 03:34:38;;;;;;;;;;;15.20;80.20;;;;;;4974394;28;92226;-62
2021/04/27 03:37:04;;;;;;;;;;;15.20;80.30;;;;;;4975286;28;93700;-62
2021/04/27 03:39:29;;;;;;;;;;;15.20;80.10;;;;;;4977292;28;93947;-62
2021/04/27 03:41:56;;;;;;;;;;;15.20;80.20;;;;;;4979037;28;92203;-62
2021/04/27 03:44:22;;;;;;;;;;;15.20;80.20;;;;;;4977610;28;93387;-62
2021/04/27 03:46:47;;;;;;;;;;;15.20;80.00;;;;;;4980334;28;94437;-62
2021/04/27 03:49:13;;;;;;;;;;;15.20;80.30;;;;;;4976904;28;93933;-62
2021/04/27 03:51:39;;;;;;;;;;;15.20;80.40;;;;;;4975915;28;92668;-62
2021/04/27 03:54:05;;;;;;;;;;;15.10;80.40;;;;;;4975175;28;92197;-61
2021/04/27 03:56:30;;;;;;;;;;;15.10;80.30;;;;;;4974593;28;93956;-61
2021/04/27 03:58:56;;;;;;;;;;;15.10;80.20;;;;;;4975824;28;94054;-61
2021/04/27 04:01:21;;;;;;;;;;;15.10;79.90;;;;;;4978922;28;93233;-62
2021/04/27 04:03:47;;;;;;;;;;;15.10;80.10;;;;;;4977692;28;93137;-62
2021/04/27 04:06:12;;;;;;;;;;;15.10;80.30;;;;;;4977082;28;92742;-62
2021/04/27 04:08:38;;;;;;;;;;;15.10;80.30;;;;;;4980420;28;92164;-62
2021/04/27 04:11:04;;;;;;;;;;;15.10;80.20;;;;;;4977966;28;93369;-61
2021/04/27 04:13:29;;;;;;;;;;;15.10;80.00;;;;;;4977709;28;92188;-62
2021/04/27 04:15:55;;;;;;;;;;;15.00;80.30;;;;;;4976665;28;92253;-61
2021/04/27 04:18:21;;;;;;;;;;;15.10;80.50;;;;;;4976522;28;93231;-62
2021/04/27 04:20:48;;;;;;;;;;;15.00;81.00;;;;;;4975837;28;91485;-62
2021/04/27 04:23:13;;;;;;;;;;;15.00;80.50;;;;;;4972565;28;93337;-62
2021/04/27 04:25:39;;;;;;;;;;;15.00;80.20;;;;;;4973349;28;92221;-61
2021/04/27 04:28:05;;;;;;;;;;;15.00;80.40;;;;;;4973616;28;93192;-62
2021/04/27 04:30:31;;;;;;;;;;;15.00;80.40;;;;;;4977488;28;93716;-61
2021/04/27 04:32:57;;;;;;;;;;;15.00;80.30;;;;;;4978162;28;92206;-62
2021/04/27 04:35:23;;;;;;;;;;;15.00;80.10;;;;;;4976988;28;92391;-62
2021/04/27 04:37:49;;;;;;;;;;;15.00;80.30;;;;;;4974758;28;93268;-61
2021/04/27 04:40:15;;;;;;;;;;;15.00;80.40;;;;;;4974321;28;92293;-62
2021/04/27 04:42:41;;;;;;;;;;;15.00;80.20;;;;;;4973358;28;94042;-61
2021/04/27 04:45:07;;;;;;;;;;;15.00;80.50;;;;;;4977932;28;92722;-62
2021/04/27 04:47:33;;;;;;;;;;;15.00;80.30;;;;;;4976257;28;92197;-61
2021/04/27 04:50:00;;;;;;;;;;;15.00;80.30;;;;;;4978050;28;92230;-62
2021/04/27 04:52:25;;;;;;;;;;;15.00;80.30;;;;;;4972631;28;93214;-62
2021/04/27 04:54:51;;;;;;;;;;;15.00;80.40;;;;;;4975916;28;93485;-62
2021/04/27 04:57:17;;;;;;;;;;;14.90;80.20;;;;;;4977066;28;92822;-61
2021/04/27 04:59:42;;;;;;;;;;;14.90;80.50;;;;;;4976893;28;92167;-61
2021/04/27 05:02:08;;;;;;;;;;;14.90;80.50;;;;;;4975805;28;93443;-62
2021/04/27 05:04:33;;;;;;;;;;;14.90;80.50;;;;;;4974912;28;92875;-61
2021/04/27 05:07:04;;;;;;;;;;;14.90;80.50;;;;;;4974625;28;92251;-62
2021/04/27 05:09:30;;;;;;;;;;;14.90;80.40;;;;;;4974028;28;94037;-61
2021/04/27 05:11:56;;;;;;;;;;;14.90;80.40;;;;;;4975308;28;93454;-61
2021/04/27 05:14:22;;;;;;;;;;;14.90;80.60;;;;;;4978041;28;92336;-62
2021/04/27 05:16:47;;;;;;;;;;;14.90;80.50;;;;;;4974896;28;93507;-62
2021/04/27 05:19:13;;;;;;;;;;;14.90;80.50;;;;;;4975791;28;92201;-62
2021/04/27 05:21:39;;;;;;;;;;;14.90;80.40;;;;;;4974929;28;92305;-62
2021/04/27 05:24:06;;;;;;;;;;;14.90;80.40;;;;;;4973357;28;92652;-62
2021/04/27 05:26:31;;;;;;;;;;;14.90;80.40;;;;;;4977281;28;93330;-62
2021/04/27 05:28:57;;;;;;;;;;;14.90;80.20;;;;;;4977345;28;92193;-62
2021/04/27 05:31:22;;;;;;;;;;;14.90;80.40;;;;;;4976032;28;92511;-62
2021/04/27 05:33:48;;;;;;;;;;;14.90;80.40;;;;;;4979560;28;91431;-62
2021/04/27 05:36:13;;;;;;;;;;;14.90;80.40;;;;;;4978217;28;92716;-61
2021/04/27 05:38:39;;;;;;;;;;;14.90;80.40;;;;;;4977982;28;92185;-62
2021/04/27 05:41:04;;;;;;;;;;;14.90;80.40;;;;;;4976728;28;93182;-62
2021/04/27 05:43:30;;;;;;;;;;;14.90;80.50;;;;;;4975960;28;93226;-62
2021/04/27 05:45:56;;;;;;;;;;;14.90;80.50;;;;;;4976080;28;93024;-62
2021/04/27 05:48:21;;;;;;;;;;;14.90;80.70;;;;;;4980305;28;93668;-62
2021/04/27 05:50:47;;;;;;;;;;;14.90;80.50;;;;;;4979889;28;93327;-62
2021/04/27 05:53:13;;;;;;;;;;;14.90;80.50;;;;;;4979201;28;92236;-62
2021/04/27 05:55:40;;;;;;;;;;;14.90;80.60;;;;;;4982284;28;92241;-62
2021/04/27 05:58:06;;;;;;;;;;;14.90;80.60;;;;;;4977104;28;91542;-61
2021/04/27 06:00:32;;;;;;;;;;;14.80;80.60;;;;;;4977564;28;93040;-61
2021/04/27 06:02:57;;;;;;;;;;;14.90;80.40;;;;;;4980223;28;93381;-62
2021/04/27 06:05:23;;;;;;;;;;;14.90;80.50;;;;;;4979779;28;93103;-62
2021/04/27 06:07:48;;;;;;;;;;;14.90;80.50;;;;;;4979714;28;94052;-62
2021/04/27 06:10:14;;;;;;;;;;;14.90;80.60;;;;;;4978472;28;93158;-62
2021/04/27 06:12:39;;;;;;;;;;;14.80;80.60;;;;;;4978318;28;92246;-61
2021/04/27 06:15:05;;;;;;;;;;;14.90;80.60;;;;;;4979127;28;92562;-61
2021/04/27 06:17:33;;;;;;;;;;;14.90;80.60;;;;;;4980956;28;94731;-61
2021/04/27 06:19:59;;;;;;;;;;;14.90;80.70;;;;;;4976386;28;93173;-62
2021/04/27 06:22:24;;;;;;;;;;;14.90;80.40;;;;;;4975861;28;92438;-62
2021/04/27 06:24:50;;;;;;;;;;;14.90;80.40;;;;;;4976649;28;93417;-62
2021/04/27 06:27:16;;;;;;;;;;;14.90;80.50;;;;;;4979764;28;93005;-62
2021/04/27 06:29:41;;;;;;;;;;;14.90;80.90;;;;;;4978659;28;94211;-62
2021/04/27 06:32:07;;;;;;;;;;;14.90;80.40;;;;;;4980159;28;92231;-62
2021/04/27 06:34:32;;;;;;;;;;;14.90;80.30;;;;;;4979423;28;92666;-62
2021/04/27 06:36:58;;;;;;;;;;;14.90;80.60;;;;;;4978027;28;94531;-61
2021/04/27 06:39:24;;;;;;;;;;;14.90;80.50;;;;;;4980124;28;92219;-62
2021/04/27 06:41:49;;;;;;;;;;;14.90;80.60;;;;;;4975754;28;93173;-61
2021/04/27 06:44:15;;;;;;;;;;;14.90;80.50;;;;;;4975701;28;92252;-62
2021/04/27 06:46:40;;;;;;;;;;;14.90;80.50;;;;;;4975030;28;92822;-62
2021/04/27 06:49:06;;;;;;;;;;;14.90;80.50;;;;;;4977349;28;93566;-61
2021/04/27 06:51:31;;;;;;;;;;;14.90;80.40;;;;;;4980013;28;92264;-62
2021/04/27 06:53:57;;;;;;;;;;;14.90;80.50;;;;;;4978726;28;93119;-61
2021/04/27 06:56:22;;;;;;;;;;;14.90;80.40;;;;;;4978043;28;93260;-62
2021/04/27 06:58:48;;;;;;;;;;;14.90;80.50;;;;;;4980874;28;92187;-62
2021/04/27 07:01:14;;;;;;;;;;;14.90;80.60;;;;;;4978068;28;93847;-62
2021/04/27 07:03:41;;;;;;;;;;;14.90;80.40;;;;;;4978571;28;93595;-62
2021/04/27 07:06:07;;;;;;;;;;;14.90;80.40;;;;;;4978424;28;93985;-61
2021/04/27 07:08:32;;;;;;;;;;;14.90;80.60;;;;;;4977974;28;94283;-62
2021/04/27 07:10:58;;;;;;;;;;;14.90;80.60;;;;;;4979720;28;91495;-62
2021/04/27 07:13:25;;;;;;;;;;;14.90;80.60;;;;;;4977863;28;92183;-62
2021/04/27 07:15:50;;;;;;;;;;;14.90;80.60;;;;;;4975306;28;93122;-61
2021/04/27 07:18:16;;;;;;;;;;;14.90;80.70;;;;;;4974513;28;93229;-62
2021/04/27 07:20:42;;;;;;;;;;;14.90;80.80;;;;;;4977046;28;94040;-61
2021/04/27 07:23:08;;;;;;;;;;;15.00;80.70;;;;;;4979014;28;92181;-61
2021/04/27 07:25:34;;;;;;;;;;;15.00;80.80;;;;;;4978203;28;92357;-62
2021/04/27 07:28:00;;;;;;;;;;;15.00;80.60;;;;;;4976424;28;94456;-61
2021/04/27 07:30:25;;;;;;;;;;;15.00;80.70;;;;;;4977378;28;92262;-62
2021/04/27 07:32:51;;;;;;;;;;;15.00;80.80;;;;;;4976604;28;92198;-61
2021/04/27 07:35:17;;;;;;;;;;;15.00;80.90;;;;;;4974920;28;93848;-62
2021/04/27 07:37:43;;;;;;;;;;;15.00;80.80;;;;;;4975793;28;93864;-62
2021/04/27 07:40:09;;;;;;;;;;;15.00;80.80;;;;;;4974826;28;93907;-62
2021/04/27 07:42:35;;;;;;;;;;;15.00;80.60;;;;;;4980761;28;93982;-62
2021/04/27 07:45:01;;;;;;;;;;;15.00;80.70;;;;;;4978671;28;93464;-62
2021/04/27 07:47:27;;;;;;;;;;;15.00;80.80;;;;;;4977551;28;92657;-61
2021/04/27 07:49:53;;;;;;;;;;;15.00;80.80;;;;;;4976926;28;92205;-61
2021/04/27 07:52:18;;;;;;;;;;;15.00;80.90;;;;;;4976240;28;92200;-62
2021/04/27 07:54:45;;;;;;;;;;;15.00;80.70;;;;;;4975435;28;94499;-62
2021/04/27 07:57:11;;;;;;;;;;;15.00;80.70;;;;;;4974803;28;94013;-61
2021/04/27 07:59:37;;;;;;;;;;;15.00;80.70;;;;;;4975760;28;93791;-61
2021/04/27 08:02:02;;;;;;;;;;;15.00;80.70;;;;;;4973668;28;93141;-61
2021/04/27 08:04:28;;;;;;;;;;;15.00;80.90;;;;;;4977886;28;92844;-62
2021/04/27 08:06:53;;;;;;;;;;;15.00;80.80;;;;;;4973663;28;93119;-61
2021/04/27 08:09:19;;;;;;;;;;;15.00;80.90;;;;;;4974375;28;92248;-61
2021/04/27 08:11:44;;;;;;;;;;;15.10;80.80;;;;;;4974385;28;93550;-61
2021/04/27 08:14:10;;;;;;;;;;;15.10;80.80;;;;;;4973986;28;93644;-61
2021/04/27 08:16:36;;;;;;;;;;;15.10;80.80;;;;;;4975086;28;92230;-61
2021/04/27 08:19:02;;;;;;;;;;;15.10;80.80;;;;;;4974842;28;92165;-62
2021/04/27 08:21:28;;;;;;;;;;;15.10;80.80;;;;;;4973490;28;93892;-61
2021/04/27 08:23:53;;;;;;;;;;;15.10;80.80;;;;;;4974626;28;91507;-61
2021/04/27 08:26:19;;;;;;;;;;;15.10;80.70;;;;;;4976841;28;92205;-61
2021/04/27 08:28:45;;;;;;;;;;;15.10;80.70;;;;;;4974281;28;93938;-61
2021/04/27 08:31:11;;;;;;;;;;;15.10;80.70;;;;;;4973860;28;93912;-61
2021/04/27 08:33:36;;;;;;;;;;;15.10;80.80;;;;;;4973076;28;94818;-62
2021/04/27 08:36:02;;;;;;;;;;;15.10;80.70;;;;;;4974912;28;92731;-61
2021/04/27 08:38:28;;;;;;;;;;;15.10;80.70;;;;;;4978173;28;94470;-62
2021/04/27 08:40:54;;;;;;;;;;;15.10;80.60;;;;;;4976959;28;93059;-62
2021/04/27 08:43:20;;;;;;;;;;;15.10;80.70;;;;;;4975858;28;92177;-62
2021/04/27 08:45:45;;;;;;;;;;;15.10;80.60;;;;;;4974668;28;92932;-61
2021/04/27 08:48:12;;;;;;;;;;;15.20;80.40;;;;;;4976681;28;92306;-62
2021/04/27 08:50:38;;;;;;;;;;;15.20;80.50;;;;;;4977595;28;93187;-62
2021/04/27 08:53:04;;;;;;;;;;;15.20;80.30;;;;;;4975689;28;93290;-62
2021/04/27 08:55:30;;;;;;;;;;;15.20;80.30;;;;;;4974827;28;93242;-61
2021/04/27 08:57:55;;;;;;;;;;;15.20;80.30;;;;;;4975894;28;93278;-62
2021/04/27 09:00:22;;;;;;;;;;;15.20;80.30;;;;;;4974591;28;92990;-62
2021/04/27 09:02:58;;;;;;;;;;;15.20;80.40;;;;;;4974844;28;92160;-61
2021/04/27 09:05:25;;;;;;;;;;;15.20;80.20;;;;;;4973694;28;93565;-62
2021/04/27 09:07:52;;;;;;;;;;;15.20;80.00;;;;;;4976562;28;94547;-62
2021/04/27 09:10:42;;;;;;;;;;;15.20;79.90;;;;;;4976006;28;93933;-62
2021/04/27 09:13:11;;;;;;;;;;;15.20;79.80;;;;;;4973109;28;92664;-62
2021/04/27 09:15:42;;;;;;;;;;;15.30;79.90;;;;;;4976472;28;93994;-62
2021/04/27 09:18:28;;;;;;;;;;;15.20;80.00;;;;;;4977283;28;92532;-62
2021/04/27 09:20:55;;;;;;;;;;;15.20;80.00;;;;;;4973401;28;94089;-62
2021/04/27 09:23:21;;;;;;;;;;;15.20;80.00;;;;;;4974748;28;92618;-62
2021/04/27 09:26:07;;;;;;;;;;;15.20;80.00;;;;;;4978044;28;92546;-62
2021/04/27 09:28:33;;;;;;;;;;;15.20;80.00;;;;;;4975757;28;94531;-61
2021/04/27 09:30:59;;;;;;;;;;;15.20;80.10;;;;;;4977935;28;92287;-61
2021/04/27 09:33:25;;;;;;;;;;;15.20;80.20;;;;;;4973618;28;93427;-62
2021/04/27 09:35:51;;;;;;;;;;;15.20;80.20;;;;;;4974970;28;93787;-62
2021/04/27 09:38:18;;;;;;;;;;;15.20;80.30;;;;;;4978205;28;92595;-62
2021/04/27 09:40:57;;;;;;;;;;;15.20;80.60;;;;;;4974646;28;92521;-61
2021/04/27 09:43:24;;;;;;;;;;;15.20;80.50;;;;;;4976590;28;92195;-62
2021/04/27 09:45:51;;;;;;;;;;;15.20;80.50;;;;;;4972876;28;93208;-62
2021/04/27 09:48:36;;;;;;;;;;;15.20;81.10;;;;;;4976885;28;93209;-62
2021/04/27 09:51:03;;;;;;;;;;;15.20;80.70;;;;;;4977022;28;92184;-63
2021/04/27 09:53:42;;;;;;;;;;;15.20;80.60;;;;;;4978690;28;92179;-62
2021/04/27 09:56:08;;;;;;;;;;;15.30;80.60;;;;;;4973572;28;93400;-61
2021/04/27 09:58:34;;;;;;;;;;;15.30;80.80;;;;;;4977286;28;92181;-62
2021/04/27 10:01:01;;;;;;;;;;;15.30;80.90;;;;;;4975116;28;93050;-61
2021/04/27 10:03:27;;;;;;;;;;;15.30;80.70;;;;;;4977458;28;91467;-62
2021/04/27 10:05:52;;;;;;;;;;;15.30;80.70;;;;;;4976501;28;92219;-62
2021/04/27 10:08:18;;;;;;;;;;;15.30;80.90;;;;;;4974854;28;92971;-61
2021/04/27 10:10:44;;;;;;;;;;;15.30;80.90;;;;;;4973835;28;93188;-62
2021/04/27 10:13:10;;;;;;;;;;;15.30;80.90;;;;;;4973179;28;95128;-62
2021/04/27 10:15:36;;;;;;;;;;;15.30;80.80;;;;;;4974824;28;94559;-62
2021/04/27 10:18:04;;;;;;;;;;;15.30;80.80;;;;;;4973407;28;92638;-62
2021/04/27 10:20:30;;;;;;;;;;;15.30;81.00;;;;;;4976615;28;94523;-61
2021/04/27 10:22:57;;;;;;;;;;;15.30;81.20;;;;;;4978864;28;92278;-61
2021/04/27 10:25:24;;;;;;;;;;;15.30;81.20;;;;;;4977948;28;92755;-62
2021/04/27 10:27:56;;;;;;;;;;;15.30;81.40;;;;;;4975807;28;92933;-62
2021/04/27 10:30:22;;;;;;;;;;;15.30;81.30;;;;;;4979718;28;92178;-62
2021/04/27 10:33:03;;;;;;;;;;;15.30;81.10;;;;;;4979364;28;93582;-62
2021/04/27 10:35:33;;;;;;;;;;;15.30;81.30;;;;;;4978179;28;94043;-62
2021/04/27 10:38:00;;;;;;;;;;;15.30;81.10;;;;;;4981987;28;92927;-61
2021/04/27 10:41:01;;;;;;;;;;;15.30;81.10;;;;;;4978743;28;94403;-62
2021/04/27 10:43:27;;;;;;;;;;;15.30;81.10;;;;;;4937809;28;92300;-62
2021/04/27 10:45:53;;;;;;;;;;;15.30;81.20;;;;;;4970103;28;92602;-62
2021/04/27 10:48:31;;;;;;;;;;;15.30;81.40;;;;;;4976167;28;93194;-62
2021/04/27 10:50:59;;;;;;;;;;;15.30;81.20;;;;;;4979991;28;93728;-61
2021/04/27 10:53:32;;;;;;;;;;;15.30;81.30;;;;;;4976290;28;93669;-62
2021/04/27 10:55:58;;;;;;;;;;;15.30;81.30;;;;;;4978077;28;94027;-62
2021/04/27 10:58:43;;;;;;;;;;;15.30;81.40;;;;;;4977312;28;92223;-61
2021/04/27 11:01:19;;;;;;;;;;;15.30;81.50;;;;;;4979055;28;93456;-61
2021/04/27 11:03:49;;;;;;;;;;;15.30;81.30;;;;;;4976026;28;92227;-61
2021/04/27 11:06:15;;;;;;;;;;;15.30;81.40;;;;;;4976328;28;93493;-62
2021/04/27 11:08:49;;;;;;;;;;;15.30;81.60;;;;;;4974461;28;92526;-62
2021/04/27 11:11:18;;;;;;;;;;;15.30;81.40;;;;;;4975497;28;92227;-61
2021/04/27 11:13:44;;;;;;;;;;;15.30;81.60;;;;;;4977196;28;92233;-61
2021/04/27 11:16:22;;;;;;;;;;;15.30;81.60;;;;;;4975178;28;94412;-62
2021/04/27 11:18:48;;;;;;;;;;;15.30;81.40;;;;;;4978166;28;91485;-62
2021/04/27 11:21:14;;;;;;;;;;;15.40;81.40;;;;;;4979562;28;92184;-62
2021/04/27 11:23:46;;;;;;;;;;;15.40;81.50;;;;;;4976337;28;92188;-62
2021/04/27 11:26:30;;;;;;;;;;;15.40;81.50;;;;;;4978483;28;94052;-62
2021/04/27 11:28:58;;;;;;;;;;;15.40;81.70;;;;;;4974156;28;93284;-62
2021/04/27 11:31:24;;;;;;;;;;;15.40;81.50;;;;;;4976569;28;92203;-62
2021/04/27 11:33:56;;;;;;;;;;;15.40;81.40;;;;;;4975377;28;92722;-61
2021/04/27 11:36:34;;;;;;;;;;;15.40;81.60;;;;;;4978223;28;93547;-62
2021/04/27 11:39:08;;;;;;;;;;;15.40;81.60;;;;;;4974615;28;92219;-61
2021/04/27 11:41:52;;;;;;;;;;;15.40;81.70;;;;;;4976646;28;92303;-61
2021/04/27 11:44:19;;;;;;;;;;;15.40;81.70;;;;;;4980761;28;93377;-62
2021/04/27 11:46:57;;;;;;;;;;;15.40;81.60;;;;;;4975872;28;92184;-62
2021/04/27 11:49:41;;;;;;;;;;;15.50;81.60;;;;;;4976820;28;94307;-62
2021/04/27 11:52:07;;;;;;;;;;;15.40;81.80;;;;;;4978055;28;93234;-62
2021/04/27 11:54:36;;;;;;;;;;;15.40;81.80;;;;;;4978046;28;92824;-62
2021/04/27 11:57:02;;;;;;;;;;;15.50;81.60;;;;;;4978121;28;93829;-62
2021/04/27 11:59:27;;;;;;;;;;;15.50;81.70;;;;;;4977939;28;92157;-62
2021/04/27 12:02:02;;;;;;;;;;;15.40;81.80;;;;;;4977282;28;93342;-62
2021/04/27 12:04:28;;;;;;;;;;;15.50;81.80;;;;;;4976362;28;94937;-62
2021/04/27 12:07:03;;;;;;;;;;;15.50;81.70;;;;;;4979328;28;92217;-61
2021/04/27 12:09:49;;;;;;;;;;;15.50;81.90;;;;;;4975644;28;92559;-61
2021/04/27 12:12:18;;;;;;;;;;;15.50;81.70;;;;;;4974240;28;92322;-61
2021/04/27 12:14:51;;;;;;;;;;;15.50;81.60;;;;;;4976239;28;93968;-62
2021/04/27 12:17:23;;;;;;;;;;;15.60;81.80;;;;;;4976444;28;94751;-62
2021/04/27 12:20:00;;;;;;;;;;;15.50;81.80;;;;;;4976736;28;92244;-61
2021/04/27 12:22:26;;;;;;;;;;;15.50;81.80;;;;;;4974664;28;92268;-61
2021/04/27 12:24:51;;;;;;;;;;;15.50;81.80;;;;;;4973184;28;93103;-61
2021/04/27 12:27:19;;;;;;;;;;;15.50;81.90;;;;;;4974112;28;92226;-62
2021/04/27 12:29:59;;;;;;;;;;;15.50;81.80;;;;;;4979030;28;93878;-62
2021/04/27 12:32:30;;;;;;;;;;;15.50;82.40;;;;;;4977460;28;92184;-62
2021/04/27 12:34:55;;;;;;;;;;;15.50;81.90;;;;;;4976352;28;94251;-61
2021/04/27 12:37:21;;;;;;;;;;;15.60;81.80;;;;;;4974752;28;94903;-62
2021/04/27 12:39:47;;;;;;;;;;;15.60;81.80;;;;;;4974384;28;92300;-62
2021/04/27 12:42:17;;;;;;;;;;;15.60;81.90;;;;;;4972700;28;93117;-62
2021/04/27 12:44:42;;;;;;;;;;;15.60;82.00;;;;;;4972127;28;93257;-61
2021/04/27 12:47:14;;;;;;;;;;;15.60;82.00;;;;;;4975910;28;93883;-61
2021/04/27 12:49:39;;;;;;;;;;;15.50;82.00;;;;;;4977284;28;92214;-62
2021/04/27 12:52:07;;;;;;;;;;;15.60;82.20;;;;;;4979267;28;92716;-61
2021/04/27 12:54:33;;;;;;;;;;;15.60;82.10;;;;;;4974398;28;94470;-62
2021/04/27 12:57:15;;;;;;;;;;;15.60;82.10;;;;;;4973524;28;93185;-61
2021/04/27 12:59:42;;;;;;;;;;;15.60;82.10;;;;;;4977694;28;92132;-62
2021/04/27 13:02:12;;;;;;;;;;;15.60;82.10;;;;;;4975128;28;93086;-62
2021/04/27 13:04:45;;;;;;;;;;;15.60;82.20;;;;;;4976201;28;93267;-62
2021/04/27 13:07:22;;;;;;;;;;;15.60;82.20;;;;;;4972723;28;93123;-61
2021/04/27 13:09:48;;;;;;;;;;;15.60;82.30;;;;;;4976238;28;94671;-62
2021/04/27 13:12:14;;;;;;;;;;;15.60;82.80;;;;;;4974935;28;94130;-62
2021/04/27 13:14:42;;;;;;;;;;;15.60;82.30;;;;;;4977260;28;92243;-61
2021/04/27 13:17:20;;;;;;;;;;;15.60;82.30;;;;;;4976410;28;92696;-62
2021/04/27 13:19:47;;;;;;;;;;;15.50;82.30;;;;;;4974916;28;93255;-62
2021/04/27 13:22:15;;;;;;;;;;;15.50;82.40;;;;;;4976801;28;92176;-62
2021/04/27 13:24:43;;;;;;;;;;;15.60;82.40;;;;;;4972718;28;94035;-62
2021/04/27 13:27:10;;;;;;;;;;;15.60;82.50;;;;;;4974772;28;92315;-62
2021/04/27 13:29:36;;;;;;;;;;;15.60;82.60;;;;;;4973022;28;94025;-61
2021/04/27 13:32:22;;;;;;;;;;;15.50;82.50;;;;;;4976432;28;93783;-62
2021/04/27 13:34:47;;;;;;;;;;;15.60;82.50;;;;;;4979905;28;92192;-61
2021/04/27 13:37:13;;;;;;;;;;;15.60;83.00;;;;;;4974170;28;93960;-62
2021/04/27 13:39:38;;;;;;;;;;;15.60;82.50;;;;;;4975494;28;92231;-62
2021/04/27 13:42:04;;;;;;;;;;;15.60;82.70;;;;;;4976423;28;93038;-61
2021/04/27 13:44:30;;;;;;;;;;;15.50;82.70;;;;;;4976747;28;92638;-62
2021/04/27 13:46:56;;;;;;;;;;;15.50;82.70;;;;;;4975952;28;92236;-62
2021/04/27 13:49:21;;;;;;;;;;;15.50;82.70;;;;;;4975609;28;93863;-62
2021/04/27 13:51:47;;;;;;;;;;;15.50;82.70;;;;;;4973788;28;93251;-62
2021/04/27 13:54:13;;;;;;;;;;;15.50;82.60;;;;;;4973833;28;92166;-62
2021/04/27 13:56:39;;;;;;;;;;;15.50;82.60;;;;;;4980041;28;93141;-62
2021/04/27 13:59:04;;;;;;;;;;;15.60;82.60;;;;;;4979598;28;92158;-62
2021/04/27 14:01:31;;;;;;;;;;;15.60;82.60;;;;;;4980259;28;92307;-62
2021/04/27 14:03:57;;;;;;;;;;;15.50;82.70;;;;;;4977939;28;92766;-62
2021/04/27 14:06:22;;;;;;;;;;;15.50;82.80;;;;;;4978548;28;92218;-62
2021/04/27 14:08:48;;;;;;;;;;;15.60;82.70;;;;;;4979972;28;92528;-62
2021/04/27 14:11:13;;;;;;;;;;;15.50;82.60;;;;;;4978600;28;93251;-62
2021/04/27 14:13:39;;;;;;;;;;;15.50;82.80;;;;;;4976321;28;92253;-62
2021/04/27 14:16:04;;;;;;;;;;;15.60;82.80;;;;;;4976086;28;92235;-62
2021/04/27 14:18:30;;;;;;;;;;;15.60;82.90;;;;;;4978746;28;94523;-62